BERTHOUD PASS (METAR) 12490 ft         Display wind rose
     Date    Time     Temp MxTp MnTp DewP  RH Spd Dir Gst  Vis
2019 Oct 14 03:00 am    28   36   19   10  46  36 280  59 10.0
2019 Oct 14 02:00 am    27   36   19   10  50  29 290  39 10.0
2019 Oct 14 01:00 am    28   36   19   10  46  18 290  30 10.0
2019 Oct 14 12:00 am    30   36   19   12  47  20 280  28 10.0
2019 Oct 13 11:00 pm    30   36   19   12  47  13 280  20 10.0
2019 Oct 13 10:00 pm    30   36   19   14  50   8 230  17 10.0
2019 Oct 13 09:00 pm    32   36   19   14  47  15 260   - 10.0
2019 Oct 13 08:00 pm    32   36   19   14  47  16 250  22 10.0
2019 Oct 13 07:00 pm    32   36   19   16  51  13 270   - 10.0
2019 Oct 13 06:00 pm    34   36   19   18  51  10 270  20 10.0
2019 Oct 13 05:00 pm    34   36   19   19  55  20 280  25 10.0
2019 Oct 13 04:00 pm    36   36   19   19  51  20 300  33 10.0
2019 Oct 13 03:00 pm    34   34   19   18  51  28 300  38 10.0
2019 Oct 13 02:00 pm    32   32   19   18  55  29 290  47 10.0
2019 Oct 13 01:00 pm    32   32   19   18  55  30 300  38 10.0
2019 Oct 13 12:00 pm    32   32   19   14  47   -   -   - 10.0
2019 Oct 13 11:00 am    30   30   19   12  47   -   -   - 10.0
2019 Oct 13 10:00 am    27   30   19   10  50   -   -   - 10.0
2019 Oct 13 09:00 am    23   30   19    7  49   -   -   - 10.0
2019 Oct 13 08:00 am    23   30   18    5  45  31 310  39 10.0
2019 Oct 13 07:00 am    19   30   18    1  45  21 330  30 10.0
2019 Oct 13 06:00 am    21   30   18    3  45  20 320  28 10.0
2019 Oct 13 05:00 am    19   30   18    3  49  15 330  30 10.0
2019 Oct 13 04:00 am    21   30   18    5  49  13 330  26 10.0
2019 Oct 13 03:00 am    21   30   18    5  49  13 340  29 10.0
2019 Oct 13 02:00 am    21   30   18    5  49  22 330   - 10.0
2019 Oct 13 01:00 am    21   30   18    5  49  23 340  30 10.0
2019 Oct 13 12:00 am    21   30   18    5  49  24 330  30 10.0
2019 Oct 12 11:00 pm    23   30   18    5  45  22 320  26 10.0
2019 Oct 12 10:00 pm    23   30   18    7  49  17 320  25 10.0
2019 Oct 12 09:00 pm    25   30   18    9  50  15 280   - 10.0
2019 Oct 12 08:00 pm    25   30   14    9  50  15 280   - 10.0
2019 Oct 12 04:00 pm    30   30   12   14  50  31 290  43 10.0
2019 Oct 12 03:00 pm    30   30   12   12  47  33 290  41 10.0
2019 Oct 12 02:00 pm    28   28   10   12  50  23 310  34 10.0
2019 Oct 12 01:00 pm    27   27    9   10  50  25 300  36 10.0
2019 Oct 12 12:00 pm    27   27    5    9  46   -   -   - 10.0
2019 Oct 12 11:00 am    23   23    1    7  49  32 310  40 10.0
2019 Oct 12 10:00 am    21   21    1    3  45  32 310  39 10.0
2019 Oct 12 09:00 am    19   19   -2    3  49  34 310  39 10.0
2019 Oct 12 08:00 am    18   19   -4    1  48  32 310  40 10.0
2019 Oct 12 07:00 am    19   19   -4    3  49  37 300  46 10.0
2019 Oct 12 06:00 am    19   19   -4    1  45  38 300  47 10.0
2019 Oct 12 05:00 am    19   19   -4    1  45  36 300  44 10.0
2019 Oct 12 04:00 am    19   19   -4    3  49  36 300  49 10.0
2019 Oct 12 03:00 am    19   19   -4    1  45  43 300  52 10.0